ECFOS LPFR-LEMG
Flight info
| Callsign | ECFOS |
|---|---|
| Flight time | N/A |
| Altitude | 19000 |
| Route | NIRAK Y136 NAPES/N0308F300 N747 SVL |
| Aircraft | TBM8/L-SDFGRWY/S |
Departure
| Time | 2026-05-06 17:06 |
|---|---|
| Airport | Faro - Gago Coutinho International Airport (LPFR) |
Arrival
| Time | N/A |
|---|---|
| Airport | Málaga-Costa del Sol Airport (LEMG) |
| Time | Latitude | Longitude | Altitude | Speed | Heading |
|---|---|---|---|---|---|
| 2026-05-06 16:28 | 37.01706 | -7.96646 | 15 ft | 0 kts | 189° |
| 2026-05-06 17:01 | 37.01704 | -7.96646 | 15 ft | 2 kts | 169° |
| 2026-05-06 17:02 | 37.01728 | -7.96626 | 15 ft | 11 kts | 4° |
| 2026-05-06 17:02 | 37.01760 | -7.96625 | 15 ft | 9 kts | 359° |
| 2026-05-06 17:02 | 37.01801 | -7.96602 | 15 ft | 11 kts | 84° |
| 2026-05-06 17:02 | 37.01768 | -7.96520 | 15 ft | 12 kts | 173° |
| 2026-05-06 17:03 | 37.01673 | -7.96533 | 15 ft | 13 kts | 186° |
| 2026-05-06 17:03 | 37.01612 | -7.96457 | 15 ft | 19 kts | 101° |
| 2026-05-06 17:03 | 37.01582 | -7.96261 | 15 ft | 27 kts | 101° |
| 2026-05-06 17:03 | 37.01545 | -7.96007 | 15 ft | 32 kts | 105° |
| 2026-05-06 17:04 | 37.01508 | -7.95848 | 15 ft | 6 kts | 140° |
| 2026-05-06 17:04 | 37.01448 | -7.95839 | 15 ft | 11 kts | 191° |
| 2026-05-06 17:04 | 37.01426 | -7.95844 | 15 ft | 2 kts | 191° |
| 2026-05-06 17:04 | 37.01388 | -7.95853 | 15 ft | 8 kts | 191° |
| 2026-05-06 17:05 | 37.01348 | -7.95900 | 15 ft | 8 kts | 279° |
| 2026-05-06 17:05 | 37.01368 | -7.96071 | 15 ft | 45 kts | 277° |
| 2026-05-06 17:05 | 37.01463 | -7.96682 | 41 ft | 95 kts | 280° |
| 2026-05-06 17:05 | 37.01635 | -7.97545 | 323 ft | 111 kts | 285° |
| 2026-05-06 17:06 | 37.01802 | -7.98586 | 574 ft | 136 kts | 275° |
| 2026-05-06 17:06 | 37.01879 | -7.99755 | 1168 ft | 123 kts | 274° |
| 2026-05-06 17:06 | 37.01848 | -8.00802 | 1661 ft | 131 kts | 272° |
| 2026-05-06 17:06 | 37.01861 | -8.01942 | 2217 ft | 127 kts | 281° |
| 2026-05-06 17:07 | 37.02001 | -8.03054 | 2690 ft | 134 kts | 285° |
| 2026-05-06 17:07 | 37.02279 | -8.04189 | 3147 ft | 137 kts | 292° |
| 2026-05-06 17:07 | 37.02538 | -8.05301 | 3752 ft | 132 kts | 290° |
| 2026-05-06 17:07 | 37.02809 | -8.06426 | 4225 ft | 139 kts | 291° |
| 2026-05-06 17:08 | 37.02966 | -8.07641 | 4734 ft | 143 kts | 280° |
| 2026-05-06 17:08 | 37.02936 | -8.08908 | 5131 ft | 160 kts | 246° |
| 2026-05-06 17:08 | 37.01962 | -8.09609 | 5467 ft | 179 kts | 179° |
| 2026-05-06 17:08 | 37.00918 | -8.08934 | 5945 ft | 172 kts | 115° |
| 2026-05-06 17:09 | 37.00407 | -8.07673 | 6678 ft | 151 kts | 110° |
| 2026-05-06 17:09 | 36.99990 | -8.06481 | 7152 ft | 155 kts | 102° |
| 2026-05-06 17:09 | 36.99712 | -8.05115 | 7471 ft | 166 kts | 98° |
| 2026-05-06 17:09 | 36.99577 | -8.03770 | 8130 ft | 151 kts | 85° |
| 2026-05-06 17:10 | 36.99516 | -8.02410 | 8405 ft | 171 kts | 102° |
| 2026-05-06 17:10 | 36.98708 | -8.01160 | 8721 ft | 179 kts | 137° |
| 2026-05-06 17:10 | 36.97772 | -8.00197 | 9422 ft | 171 kts | 146° |
| 2026-05-06 17:10 | 36.96908 | -7.99192 | 9890 ft | 179 kts | 114° |
| 2026-05-06 17:11 | 36.96821 | -7.98096 | 9725 ft | 205 kts | 88° |
| 2026-05-06 17:11 | 36.96672 | -7.96433 | 10577 ft | 176 kts | 97° |
| 2026-05-06 17:11 | 36.96392 | -7.94947 | 11013 ft | 182 kts | 104° |
| 2026-05-06 17:11 | 36.95933 | -7.93414 | 11264 ft | 194 kts | 118° |
| 2026-05-06 17:12 | 36.95378 | -7.91945 | 11952 ft | 179 kts | 116° |
| 2026-05-06 17:12 | 36.94921 | -7.90508 | 12401 ft | 183 kts | 102° |
| 2026-05-06 17:12 | 36.95170 | -7.88882 | 12366 ft | 207 kts | 56° |
| 2026-05-06 17:12 | 36.95993 | -7.87505 | 13102 ft | 181 kts | 38° |
| 2026-05-06 17:13 | 36.96858 | -7.86543 | 13890 ft | 163 kts | 33° |
| 2026-05-06 17:13 | 36.97794 | -7.85543 | 14064 ft | 178 kts | 34° |
| 2026-05-06 17:13 | 36.98764 | -7.84593 | 14537 ft | 176 kts | 31° |
| 2026-05-06 17:13 | 36.99761 | -7.83698 | 14959 ft | 177 kts | 28° |
| 2026-05-06 17:14 | 37.00790 | -7.82833 | 15336 ft | 178 kts | 27° |
| 2026-05-06 17:14 | 37.01840 | -7.82001 | 15723 ft | 180 kts | 26° |
| 2026-05-06 17:14 | 37.02971 | -7.81153 | 15931 ft | 192 kts | 25° |
| 2026-05-06 17:14 | 37.04125 | -7.80314 | 16348 ft | 192 kts | 24° |
| 2026-05-06 17:15 | 37.05297 | -7.79498 | 16751 ft | 194 kts | 23° |
| 2026-05-06 17:15 | 37.06474 | -7.78713 | 17130 ft | 195 kts | 22° |
| 2026-05-06 17:15 | 37.07691 | -7.77947 | 17522 ft | 196 kts | 18° |
| 2026-05-06 17:15 | 37.08966 | -7.77249 | 17772 ft | 205 kts | 18° |
| 2026-05-06 17:16 | 37.10299 | -7.76582 | 18078 ft | 206 kts | 13° |
| 2026-05-06 17:16 | 37.11661 | -7.76106 | 18460 ft | 200 kts | 5° |
| 2026-05-06 17:16 | 37.13015 | -7.75584 | 18629 ft | 208 kts | 11° |
| 2026-05-06 17:16 | 37.14382 | -7.75104 | 18650 ft | 204 kts | 10° |
| 2026-05-06 17:17 | 37.15762 | -7.74606 | 18525 ft | 207 kts | 11° |
| 2026-05-06 17:17 | 37.17136 | -7.74093 | 18514 ft | 204 kts | 11° |
| 2026-05-06 17:17 | 37.18482 | -7.73581 | 18199 ft | 205 kts | 14° |
| 2026-05-06 17:17 | 37.19868 | -7.72872 | 17282 ft | 219 kts | 20° |
| 2026-05-06 17:18 | 37.21224 | -7.71957 | 16290 ft | 226 kts | 29° |
| 2026-05-06 17:18 | 37.22527 | -7.70832 | 15434 ft | 224 kts | 32° |
| 2026-05-06 17:18 | 37.23713 | -7.69680 | 14779 ft | 215 kts | 38° |
| 2026-05-06 17:18 | 37.24752 | -7.68330 | 13856 ft | 219 kts | 56° |
| 2026-05-06 17:19 | 37.25026 | -7.66373 | 12802 ft | 250 kts | 99° |
| 2026-05-06 17:19 | 37.24181 | -7.64491 | 12280 ft | 238 kts | 145° |
| 2026-05-06 17:19 | 37.22717 | -7.64272 | 11287 ft | 218 kts | 205° |
| 2026-05-06 17:19 | 37.21500 | -7.65026 | 11090 ft | 181 kts | 212° |
| 2026-05-06 17:20 | 37.20480 | -7.65835 | 10764 ft | 167 kts | 218° |
| 2026-05-06 17:20 | 37.19491 | -7.66737 | 10456 ft | 188 kts | 216° |
| 2026-05-06 17:20 | 37.18369 | -7.67749 | 10254 ft | 208 kts | 220° |
| 2026-05-06 17:20 | 37.17197 | -7.68897 | 10041 ft | 221 kts | 220° |
| 2026-05-06 17:21 | 37.15977 | -7.70186 | 9541 ft | 237 kts | 225° |
| 2026-05-06 17:21 | 37.14843 | -7.71670 | 9370 ft | 231 kts | 231° |
| 2026-05-06 17:21 | 37.13776 | -7.73203 | 9049 ft | 234 kts | 232° |
| 2026-05-06 17:21 | 37.12772 | -7.74828 | 8747 ft | 235 kts | 237° |
| 2026-05-06 17:22 | 37.11736 | -7.76342 | 8632 ft | 213 kts | 228° |
| 2026-05-06 17:22 | 37.10759 | -7.77618 | 7950 ft | 206 kts | 230° |
| 2026-05-06 17:22 | 37.09919 | -7.78994 | 7194 ft | 195 kts | 246° |
| 2026-05-06 17:22 | 37.09331 | -7.80607 | 6399 ft | 218 kts | 251° |
| 2026-05-06 17:23 | 37.08824 | -7.82487 | 5743 ft | 233 kts | 256° |
| 2026-05-06 17:23 | 37.08349 | -7.84394 | 5474 ft | 225 kts | 257° |
| 2026-05-06 17:23 | 37.07875 | -7.86219 | 5343 ft | 218 kts | 254° |
| 2026-05-06 17:23 | 37.07353 | -7.88015 | 4985 ft | 222 kts | 252° |
| 2026-05-06 17:24 | 37.06797 | -7.89818 | 4664 ft | 221 kts | 252° |
| 2026-05-06 17:24 | 37.06206 | -7.91537 | 4389 ft | 197 kts | 251° |
| 2026-05-06 17:24 | 37.05623 | -7.93039 | 3296 ft | 209 kts | 242° |
| 2026-05-06 17:24 | 37.04734 | -7.94610 | 2363 ft | 214 kts | 236° |
| 2026-05-06 17:25 | 37.03791 | -7.95957 | 1668 ft | 203 kts | 228° |
| 2026-05-06 17:25 | 37.02661 | -7.96916 | 1278 ft | 190 kts | 210° |
| 2026-05-06 17:25 | 37.01485 | -7.97394 | 991 ft | 166 kts | 201° |
| 2026-05-06 17:25 | 37.00425 | -7.97531 | 980 ft | 146 kts | 171° |
| 2026-05-06 17:26 | 36.99735 | -7.96743 | 929 ft | 139 kts | 103° |
| 2026-05-06 17:26 | 36.99711 | -7.95587 | 825 ft | 127 kts | 85° |
| 2026-05-06 17:26 | 36.99791 | -7.94439 | 728 ft | 140 kts | 70° |
| 2026-05-06 17:26 | 37.00486 | -7.93723 | 644 ft | 138 kts | 347° |
| 2026-05-06 17:27 | 37.01128 | -7.94539 | 286 ft | 123 kts | 291° |
| 2026-05-06 17:27 | 37.01277 | -7.95322 | 135 ft | 81 kts | 276° |
| 2026-05-06 17:27 | 37.01364 | -7.96022 | 32 ft | 77 kts | 279° |
| 2026-05-06 17:27 | 37.01433 | -7.96511 | 15 ft | 23 kts | 281° |
| 2026-05-06 17:28 | 37.01458 | -7.96573 | 16 ft | 9 kts | 332° |
| 2026-05-06 17:28 | 37.01493 | -7.96576 | 16 ft | 2 kts | 4° |
| 2026-05-06 17:28 | 37.01498 | -7.96575 | 16 ft | 4 kts | 5° |
| 2026-05-06 17:28 | 37.01552 | -7.96564 | 15 ft | 3 kts | 10° |
| 2026-05-06 17:29 | 37.01586 | -7.96555 | 15 ft | 6 kts | 11° |
| 2026-05-06 17:29 | 37.01622 | -7.96571 | 15 ft | 4 kts | 304° |
| 2026-05-06 17:29 | 37.01627 | -7.96583 | 15 ft | 0 kts | 282° |
| 2026-05-06 17:29 | 37.01627 | -7.96585 | 15 ft | 1 kts | 281° |
| 2026-05-06 17:30 | 37.01635 | -7.96648 | 15 ft | 13 kts | 279° |
| 2026-05-06 17:30 | 37.01658 | -7.96807 | 15 ft | 22 kts | 276° |
| 2026-05-06 17:30 | 37.01703 | -7.96904 | 15 ft | 12 kts | 1° |
| 2026-05-06 17:30 | 37.01784 | -7.96901 | 15 ft | 8 kts | 320° |
| 2026-05-06 17:31 | 37.01786 | -7.96926 | 15 ft | 0 kts | 237° |